Time;durP1;ratioP1;P1;durP2;ratioP2;P2;SDS_P1;SDS_P2;PMS_P1;PMS_P2;Temp;Humidity;BMP_temperature;BMP_pressure;BME280_temperature;BME280_humidity;BME280_pressure;Samples;Min_cycle;Max_cycle;Signal;HPM_P1;HPM_P2
2023/06/17 00:02:22;;;;;;;11.43;9.33;;;20.70;73.20;;;23.39;50.22;101448.63;5057817;28;20221;-57
2023/06/17 00:04:51;;;;;;;12.23;9.43;;;20.70;73.30;;;23.37;50.75;101449.94;5053983;28;20217;-57
2023/06/17 00:07:18;;;;;;;10.50;8.60;;;20.70;73.70;;;23.36;50.25;101442.94;5054083;28;20693;-55
2023/06/17 00:09:45;;;;;;;10.63;9.53;;;20.60;73.60;;;23.33;50.51;101443.38;5054401;28;20214;-59
2023/06/17 00:12:12;;;;;;;9.93;8.43;;;20.60;73.70;;;23.31;50.46;101440.13;5054258;28;20230;-57
2023/06/17 00:14:40;;;;;;;9.07;8.00;;;20.60;73.90;;;23.31;50.75;101440.94;5046780;28;20218;-58
2023/06/17 00:17:11;;;;;;;9.93;8.87;;;20.60;74.30;;;23.35;50.81;101435.94;5034403;28;20218;-62
2023/06/17 00:19:38;;;;;;;11.80;9.03;;;20.60;74.20;;;23.38;50.81;101443.50;5039740;28;20244;-58
2023/06/17 00:22:08;;;;;;;10.40;9.30;;;20.60;74.30;;;23.40;50.68;101439.53;5053518;28;20232;-57
2023/06/17 00:24:35;;;;;;;10.57;8.80;;;20.60;74.10;;;23.41;50.95;101441.16;5053058;28;20612;-58
2023/06/17 00:27:03;;;;;;;10.70;9.70;;;20.70;74.40;;;23.44;50.55;101434.47;5054665;28;20273;-56
2023/06/17 00:29:30;;;;;;;8.93;8.03;;;20.70;74.10;;;23.44;50.56;101434.47;5054309;28;20210;-54
2023/06/17 00:31:57;;;;;;;10.50;9.30;;;20.70;74.10;;;23.44;50.47;101445.22;5054282;28;20593;-55
2023/06/17 00:34:24;;;;;;;11.40;9.90;;;20.70;74.00;;;23.44;50.49;101442.53;5053681;28;20186;-54
2023/06/17 00:36:51;;;;;;;11.37;8.80;;;20.70;73.90;;;23.45;50.60;101441.50;5052968;28;20360;-58
2023/06/17 00:39:19;;;;;;;14.63;9.77;;;20.70;74.10;;;23.47;50.70;101442.88;5054063;28;20294;-59
2023/06/17 00:41:46;;;;;;;11.37;9.37;;;20.70;74.00;;;23.49;50.58;101431.88;5052020;28;20308;-57
2023/06/17 00:44:13;;;;;;;11.47;9.83;;;20.70;74.30;;;23.52;50.62;101426.03;5033659;28;20209;-57
2023/06/17 00:46:46;;;;;;;10.17;8.87;;;20.70;74.10;;;23.53;50.57;101419.59;5034125;28;20225;-58
2023/06/17 00:49:14;;;;;;;12.93;10.00;;;20.70;74.20;;;23.52;50.68;101417.97;5033734;28;20206;-58
2023/06/17 00:51:41;;;;;;;9.97;8.70;;;20.70;74.30;;;23.50;50.71;101420.91;5035552;28;20213;-58
2023/06/17 00:54:09;;;;;;;13.00;9.87;;;20.70;74.60;;;23.51;50.39;101419.00;5033589;28;20225;-57
2023/06/17 00:56:39;;;;;;;13.33;11.60;;;20.70;74.80;;;23.48;51.04;101414.13;5033386;28;20198;-55
2023/06/17 00:59:08;;;;;;;14.23;10.93;;;20.70;75.40;;;23.45;51.05;101417.31;5034346;28;20600;-56
2023/06/17 01:01:36;;;;;;;15.23;11.30;;;20.70;75.30;;;23.43;51.13;101422.94;5042652;28;20194;-55
2023/06/17 01:04:06;;;;;;;16.07;11.77;;;20.60;75.40;;;23.45;51.40;101414.59;5047251;28;20608;-57
2023/06/17 01:06:50;;;;;;;16.97;12.40;;;20.60;75.50;;;23.41;51.34;101419.66;5053557;28;20194;-58
2023/06/17 01:09:24;;;;;;;13.57;12.20;;;20.60;75.80;;;23.41;51.25;101410.78;5053879;28;20178;-56
2023/06/17 01:11:57;;;;;;;14.33;11.93;;;20.60;75.80;;;23.39;51.25;101411.00;5053879;28;20206;-58
2023/06/17 01:14:26;;;;;;;16.77;13.37;;;20.60;75.60;;;23.40;51.51;101409.16;5047768;28;20278;-59
2023/06/17 01:16:54;;;;;;;15.63;12.63;;;20.60;75.70;;;23.38;51.43;101416.63;5045987;28;20194;-59
2023/06/17 01:19:24;;;;;;;12.37;11.17;;;20.60;75.80;;;23.35;51.38;101411.75;5053258;28;20686;-57
2023/06/17 01:21:53;;;;;;;15.47;12.87;;;20.50;75.90;;;23.37;51.47;101406.94;5053582;28;20662;-58
2023/06/17 01:24:27;;;;;;;15.50;13.03;;;20.50;76.00;;;23.38;51.46;101408.56;5052643;28;20269;-59
2023/06/17 01:26:56;;;;;;;14.30;11.97;;;20.50;76.10;;;23.40;51.58;101412.66;5053802;28;20302;-59
2023/06/17 01:29:26;;;;;;;14.20;11.87;;;20.50;76.00;;;23.42;51.37;101409.72;5053215;28;20204;-58
2023/06/17 01:31:56;;;;;;;13.37;12.07;;;20.60;75.90;;;23.44;51.32;101410.28;5049707;28;20222;-58
2023/06/17 01:34:34;;;;;;;13.37;11.83;;;20.60;75.90;;;23.41;51.26;101408.91;5032788;28;20205;-58
2023/06/17 01:37:07;;;;;;;13.30;11.97;;;20.60;75.90;;;23.42;51.34;101412.41;5033627;28;20282;-56
2023/06/17 01:39:39;;;;;;;19.57;17.67;;;20.60;75.90;;;23.39;51.30;101426.34;5048082;28;20521;-58
2023/06/17 01:42:13;;;;;;;15.70;14.10;;;20.50;75.80;;;23.33;51.28;101421.88;5053930;28;20300;-56
2023/06/17 01:44:42;;;;;;;13.90;12.60;;;20.50;75.70;;;23.29;51.35;101426.13;5053316;28;20252;-58
2023/06/17 01:47:10;;;;;;;15.07;13.63;;;20.50;75.80;;;23.28;51.30;101421.78;5048907;28;20216;-55
2023/06/17 01:49:37;;;;;;;14.30;12.87;;;20.50;76.00;;;23.29;51.55;101431.50;5048679;28;20201;-56
2023/06/17 01:52:07;;;;;;;14.73;13.23;;;20.40;75.80;;;23.28;51.12;101424.47;5053632;28;20228;-58
2023/06/17 01:54:35;;;;;;;15.47;13.50;;;20.50;75.90;;;23.27;51.22;101422.88;5052786;28;20209;-55
2023/06/17 01:57:02;;;;;;;14.77;13.17;;;20.40;75.70;;;23.28;51.35;101421.78;5053842;28;20276;-56
2023/06/17 01:59:30;;;;;;;14.27;12.30;;;20.40;75.60;;;23.27;51.21;101422.88;5053486;28;20676;-57
2023/06/17 02:01:57;;;;;;;17.97;14.20;;;20.40;75.30;;;23.28;51.31;101424.47;5053621;28;20194;-58
2023/06/17 02:04:24;;;;;;;15.17;13.67;;;20.40;75.30;;;23.27;50.95;101412.13;5047641;28;20658;-58
2023/06/17 02:06:51;;;;;;;15.37;13.90;;;20.40;75.00;;;23.22;50.96;101414.72;5033301;28;20195;-57
2023/06/17 02:09:19;;;;;;;14.73;13.00;;;20.40;74.80;;;23.16;50.85;101410.28;5033846;28;20559;-58
2023/06/17 02:11:47;;;;;;;15.50;14.07;;;20.30;74.90;;;23.15;51.14;101414.03;5039817;28;20279;-55
2023/06/17 02:14:14;;;;;;;14.20;12.90;;;20.30;75.20;;;23.15;51.11;101414.03;5052839;28;20220;-58
2023/06/17 02:16:45;;;;;;;16.87;13.60;;;20.30;75.20;;;23.15;50.92;101409.50;5053361;28;20190;-55
2023/06/17 02:19:14;;;;;;;13.77;12.33;;;20.30;75.40;;;23.14;51.01;101415.09;5053327;28;20197;-58
2023/06/17 02:21:42;;;;;;;14.37;12.87;;;20.30;75.40;;;23.10;50.64;101406.72;5040754;28;20628;-56
2023/06/17 02:24:10;;;;;;;15.00;12.37;;;20.30;75.40;;;23.05;51.19;101403.09;5031994;28;20213;-57
2023/06/17 02:26:37;;;;;;;12.50;11.30;;;20.20;75.30;;;23.02;51.25;101408.94;5033173;28;20658;-57
2023/06/17 02:29:05;;;;;;;14.33;12.90;;;20.20;75.50;;;23.03;51.31;101405.22;5033091;28;20218;-57
2023/06/17 02:31:33;;;;;;;13.57;12.23;;;20.20;75.70;;;23.04;51.33;101404.16;5033101;28;20253;-59
2023/06/17 02:34:01;;;;;;;13.87;12.37;;;20.20;75.90;;;23.08;51.31;101399.94;5032724;28;20198;-59
2023/06/17 02:36:28;;;;;;;14.07;12.70;;;20.20;75.60;;;23.08;51.11;101408.00;5034465;28;20210;-55
2023/06/17 02:38:59;;;;;;;15.47;14.07;;;20.20;75.50;;;23.08;50.99;101399.94;5053342;28;20226;-62
2023/06/17 02:41:26;;;;;;;14.13;11.77;;;20.20;75.40;;;23.05;50.99;101403.09;5049265;28;20237;-55
2023/06/17 02:43:53;;;;;;;13.53;12.13;;;20.20;75.20;;;23.00;50.90;101401.13;5032705;28;20202;-58
2023/06/17 02:46:22;;;;;;;13.83;12.20;;;20.20;75.10;;;22.98;51.13;101402.44;5034181;28;20214;-58
2023/06/17 02:48:49;;;;;;;18.97;14.23;;;20.20;75.30;;;22.94;51.19;101395.91;5036970;28;20361;-55
2023/06/17 02:51:17;;;;;;;16.53;13.73;;;20.10;75.40;;;22.90;51.08;101391.03;5047634;28;20301;-58
2023/06/17 02:53:43;;;;;;;15.47;13.87;;;20.10;75.50;;;22.87;51.22;101396.84;5056437;28;20236;-59
2023/06/17 02:56:10;;;;;;;15.53;13.40;;;20.10;75.60;;;22.85;51.34;101398.97;5055941;28;20233;-57
2023/06/17 02:58:38;;;;;;;15.70;14.03;;;20.00;75.60;;;22.84;51.44;101400.00;5056667;28;20191;-56
2023/06/17 03:01:05;;;;;;;16.37;14.77;;;20.00;75.80;;;22.86;51.53;101395.25;5056434;28;20189;-56
2023/06/17 03:03:34;;;;;;;15.07;13.63;;;20.00;75.90;;;22.88;51.34;101401.19;5055847;28;20282;-59
2023/06/17 03:06:05;;;;;;;14.47;13.07;;;20.00;75.90;;;22.92;51.42;101407.72;5036474;28;20213;-56
2023/06/17 03:08:33;;;;;;;14.93;13.57;;;20.00;76.00;;;22.97;51.20;101406.97;5035956;28;20256;-57
2023/06/17 03:11:00;;;;;;;12.63;11.43;;;20.10;76.00;;;22.98;51.30;101397.06;5036473;28;20602;-61
2023/06/17 03:13:28;;;;;;;14.40;13.00;;;20.10;75.70;;;22.99;51.27;101404.06;5055974;28;20224;-59
2023/06/17 03:15:58;;;;;;;14.10;12.80;;;20.10;75.80;;;23.01;51.46;101408.13;5040521;28;20617;-57
2023/06/17 03:18:26;;;;;;;15.10;13.60;;;20.10;75.70;;;23.06;51.55;101410.13;5046346;28;20190;-56
2023/06/17 03:20:54;;;;;;;16.87;15.17;;;20.20;75.70;;;23.10;51.01;101412.09;5056026;28;20276;-54
2023/06/17 03:23:23;;;;;;;15.87;12.97;;;20.20;75.50;;;23.11;50.93;101415.56;5055699;28;20220;-57
2023/06/17 03:25:51;;;;;;;13.43;12.13;;;20.20;75.40;;;23.15;51.05;101408.66;5055937;28;20236;-56
2023/06/17 03:28:18;;;;;;;14.50;13.00;;;20.30;75.60;;;23.21;51.00;101413.06;5056202;28;20562;-58
2023/06/17 03:30:46;;;;;;;13.70;12.37;;;20.30;75.20;;;23.24;50.80;101412.59;5055605;28;21011;-56
2023/06/17 03:33:14;;;;;;;15.67;13.87;;;20.30;75.20;;;23.29;50.41;101415.38;5054845;28;20194;-59
2023/06/17 03:35:41;;;;;;;16.03;13.80;;;20.40;74.90;;;23.29;50.51;101410.81;5055882;28;20304;-57
2023/06/17 03:38:09;;;;;;;14.57;13.10;;;20.40;74.70;;;23.28;50.40;101408.34;5048636;28;20237;-57
2023/06/17 03:40:36;;;;;;;13.43;12.27;;;20.40;74.50;;;23.27;50.60;101406.75;5041767;28;20281;-56
2023/06/17 03:43:03;;;;;;;13.10;11.80;;;20.40;74.70;;;23.26;50.42;101400.56;5055258;28;20288;-59
2023/06/17 03:45:32;;;;;;;13.70;12.23;;;20.40;75.50;;;23.29;50.44;101396.56;5051576;28;20376;-58
2023/06/17 03:47:59;;;;;;;16.97;15.33;;;20.40;74.70;;;23.29;50.36;101396.56;5055335;28;20201;-57
2023/06/17 03:50:26;;;;;;;14.90;13.40;;;20.40;74.50;;;23.29;50.40;101399.25;5055270;28;20233;-59
2023/06/17 03:52:53;;;;;;;15.17;13.57;;;20.40;74.20;;;23.26;50.09;101397.88;5055427;28;20201;-58
2023/06/17 03:55:22;;;;;;;13.43;12.13;;;20.40;74.10;;;23.25;50.27;101398.13;5055303;28;20318;-59
2023/06/17 03:57:49;;;;;;;15.77;14.00;;;20.40;74.10;;;23.24;50.03;101407.22;5055047;28;20197;-59
2023/06/17 04:00:17;;;;;;;13.43;12.20;;;20.40;74.10;;;23.25;50.38;101408.88;5037073;28;20194;-54
2023/06/17 04:02:45;;;;;;;14.43;13.03;;;20.40;74.10;;;23.27;50.19;101412.13;5053770;28;20194;-57
2023/06/17 04:05:13;;;;;;;14.03;12.23;;;20.40;74.30;;;23.25;50.04;101409.66;5055182;28;20412;-57
2023/06/17 04:07:40;;;;;;;13.77;12.40;;;20.40;74.20;;;23.23;49.73;101401.03;5054795;28;20193;-60
2023/06/17 04:10:09;;;;;;;16.13;13.33;;;20.40;74.20;;;23.23;50.22;101405.56;5055159;28;20197;-62
2023/06/17 04:12:38;;;;;;;15.30;13.10;;;20.40;74.30;;;23.21;50.44;101396.94;5047025;28;20194;-57
2023/06/17 04:15:07;;;;;;;14.33;12.83;;;20.40;74.60;;;23.21;50.54;101391.56;5043604;28;20268;-59
2023/06/17 04:17:36;;;;;;;17.17;13.80;;;20.30;74.70;;;23.21;50.60;101396.94;5055238;28;20621;-58
2023/06/17 04:20:10;;;;;;;15.03;13.20;;;20.30;74.90;;;23.19;51.01;101401.75;5055011;28;20639;-58
2023/06/17 04:22:39;;;;;;;12.80;11.53;;;20.30;75.20;;;23.20;50.90;101392.66;5054961;28;20178;-55
2023/06/17 04:25:09;;;;;;;17.67;15.67;;;20.30;75.20;;;23.24;50.74;101404.53;5054388;28;20637;-56
2023/06/17 04:27:38;;;;;;;16.63;14.33;;;20.30;75.10;;;23.26;50.38;101402.41;5054388;28;20271;-57
2023/06/17 04:30:08;;;;;;;17.27;14.77;;;20.40;75.30;;;23.27;50.63;101401.38;5054687;28;20558;-56
2023/06/17 04:32:38;;;;;;;17.70;14.17;;;20.40;75.30;;;23.29;50.63;101393.88;5054770;28;20304;-58
2023/06/17 04:35:07;;;;;;;16.70;12.93;;;20.40;75.30;;;23.32;50.63;101396.09;5054384;28;20309;-57
2023/06/17 04:37:34;;;;;;;14.47;13.07;;;20.40;75.30;;;23.30;50.67;101392.81;5054322;28;20214;-58
2023/06/17 04:40:04;;;;;;;14.07;12.67;;;20.40;75.40;;;23.28;50.79;101403.81;5053784;28;20194;-64
2023/06/17 04:42:33;;;;;;;14.80;13.30;;;20.30;75.10;;;23.27;50.81;101412.13;5054069;28;20232;-58
2023/06/17 04:45:02;;;;;;;14.97;13.37;;;20.40;75.30;;;23.24;50.60;101402.66;5054480;28;20523;-58
2023/06/17 04:47:29;;;;;;;15.50;12.80;;;20.30;75.20;;;23.22;50.75;101399.41;5054566;28;20576;-56
2023/06/17 04:49:56;;;;;;;13.53;12.17;;;20.30;75.30;;;23.24;51.17;101407.22;5054566;28;20322;-59
2023/06/17 04:52:24;;;;;;;13.40;12.03;;;20.30;75.80;;;23.30;51.06;101395.50;5053594;28;20300;-59
2023/06/17 04:54:51;;;;;;;18.80;14.23;;;20.40;75.90;;;23.37;50.91;101402.38;5053726;28;20240;-62
2023/06/17 04:57:18;;;;;;;14.70;12.77;;;20.40;75.70;;;23.42;50.78;101401.66;5054089;28;20225;-59
2023/06/17 04:59:45;;;;;;;15.13;13.53;;;20.50;75.40;;;23.43;50.63;101405.97;5054463;28;20240;-59
2023/06/17 05:02:14;;;;;;;15.27;13.67;;;20.50;75.40;;;23.43;50.57;101397.91;5054057;28;20190;-58
2023/06/17 05:04:41;;;;;;;14.40;12.70;;;20.50;75.30;;;23.42;50.55;101394.41;5054521;28;20218;-61
2023/06/17 05:07:08;;;;;;;16.73;13.17;;;20.50;75.30;;;23.42;50.62;101398.97;5044830;28;20203;-58
2023/06/17 05:09:35;;;;;;;14.90;13.40;;;20.50;75.30;;;23.40;50.50;101395.72;5033118;28;20281;-57
2023/06/17 05:12:02;;;;;;;12.50;11.30;;;20.50;75.10;;;23.38;50.54;101397.81;5042563;28;20206;-58
2023/06/17 05:14:29;;;;;;;12.67;11.40;;;20.50;75.10;;;23.37;50.72;101394.31;5052868;28;20228;-59
2023/06/17 05:16:56;;;;;;;17.43;12.97;;;20.40;75.30;;;23.40;50.64;101390.34;5053855;28;20545;-56
2023/06/17 05:19:24;;;;;;;16.50;11.20;;;20.50;75.40;;;23.43;50.49;101400.59;5053908;28;20272;-57
2023/06/17 05:21:51;;;;;;;14.43;12.80;;;20.50;75.40;;;23.45;50.50;101396.63;5036918;28;20231;-58
2023/06/17 05:24:18;;;;;;;13.47;11.40;;;20.50;75.40;;;23.45;50.60;101393.09;5046051;28;20206;-61
2023/06/17 05:26:46;;;;;;;11.63;10.40;;;20.50;75.40;;;23.48;50.73;101393.44;5053830;28;20190;-59
2023/06/17 05:29:12;;;;;;;11.77;10.43;;;20.50;75.40;;;23.58;50.25;101396.28;5054047;28;20281;-58
2023/06/17 05:31:39;;;;;;;16.53;12.10;;;20.60;75.40;;;23.66;50.33;101399.63;5053423;28;20248;-59
2023/06/17 05:34:06;;;;;;;11.70;10.47;;;20.60;74.90;;;23.70;50.00;101406.16;5047605;28;20252;-60
2023/06/17 05:36:35;;;;;;;11.37;10.37;;;20.70;74.80;;;23.74;49.87;101405.44;5033792;28;20229;-58
2023/06/17 05:39:02;;;;;;;11.53;10.07;;;20.80;74.60;;;23.75;49.73;101407.03;5033549;28;20270;-58
2023/06/17 05:41:29;;;;;;;11.63;10.53;;;20.80;74.20;;;23.75;49.30;101408.94;5047002;28;20658;-57
2023/06/17 05:43:56;;;;;;;11.97;10.73;;;20.80;73.90;;;23.73;49.39;101406.47;5053416;28;20202;-57
2023/06/17 05:46:23;;;;;;;13.23;11.03;;;20.80;73.90;;;23.74;49.41;101410.00;5053205;28;20316;-57
2023/06/17 05:48:50;;;;;;;23.90;16.33;;;20.80;73.70;;;23.76;49.57;101406.00;5043896;28;20217;-61
2023/06/17 05:51:17;;;;;;;11.37;10.17;;;20.80;74.00;;;23.82;49.60;101414.97;5067695;28;20630;-59
2023/06/17 05:53:45;;;;;;;12.67;11.37;;;20.80;74.10;;;23.88;49.11;101414.78;5053313;28;20732;-57
2023/06/17 05:56:13;;;;;;;12.90;10.33;;;20.90;73.90;;;23.92;49.13;101413.22;5052935;28;20229;-60
2023/06/17 05:58:39;;;;;;;14.47;12.00;;;20.90;73.60;;;23.96;48.91;101410.88;5053204;28;20280;-58
2023/06/17 06:01:06;;;;;;;13.30;11.53;;;20.90;73.40;;;23.99;48.91;101415.75;5052715;28;20194;-59
2023/06/17 06:03:33;;;;;;;11.73;10.63;;;21.00;73.30;;;23.96;48.82;101411.66;5052777;28;20565;-59
2023/06/17 06:06:00;;;;;;;12.17;10.97;;;21.00;73.10;;;23.95;48.75;101420.81;5053030;28;20218;-57
2023/06/17 06:08:27;;;;;;;12.53;11.10;;;21.00;73.10;;;23.96;49.03;101421.63;5052709;28;20277;-57
2023/06/17 06:10:56;;;;;;;19.30;13.93;;;21.00;73.30;;;24.03;48.69;101423.06;5053540;28;20240;-55
2023/06/17 06:13:23;;;;;;;12.50;10.70;;;21.00;73.10;;;24.09;48.59;101422.13;5052378;28;20689;-58
2023/06/17 06:15:50;;;;;;;11.97;10.70;;;21.10;73.10;;;24.15;48.49;101426.50;5036017;28;20268;-57
2023/06/17 06:18:17;;;;;;;12.50;11.07;;;21.10;72.90;;;24.20;48.68;101428.47;5043502;28;20198;-58
2023/06/17 06:20:44;;;;;;;14.27;10.53;;;21.20;72.70;;;24.23;48.42;101420.72;5050983;28;20284;-59
2023/06/17 06:23:11;;;;;;;10.30;9.20;;;21.20;72.50;;;24.26;47.98;101421.28;5057364;28;20213;-58
2023/06/17 06:25:38;;;;;;;10.57;9.57;;;21.20;72.20;;;24.27;48.00;101418.34;5057267;28;20221;-59
2023/06/17 06:28:06;;;;;;;12.60;10.40;;;21.30;71.90;;;24.36;47.59;101429.50;5055447;28;20194;-59
2023/06/17 06:30:33;;;;;;;10.73;9.67;;;21.30;71.90;;;24.41;48.27;101424.19;5037332;28;20279;-57
2023/06/17 06:33:00;;;;;;;12.17;10.90;;;21.30;72.00;;;24.47;47.93;101432.09;5036574;28;20246;-59
2023/06/17 06:35:27;;;;;;;13.87;11.40;;;21.40;72.20;;;24.49;48.14;101426.44;5037021;28;20305;-57
2023/06/17 06:37:54;;;;;;;14.60;12.87;;;21.40;72.10;;;24.52;48.25;101442.09;5037099;28;20244;-59
2023/06/17 06:40:21;;;;;;;12.80;11.43;;;21.40;72.20;;;24.50;47.54;101438.84;5040817;28;20213;-58
2023/06/17 06:42:48;;;;;;;13.77;11.37;;;21.40;72.00;;;24.47;47.82;101433.94;5045668;28;20604;-58
2023/06/17 06:45:17;;;;;;;13.30;11.43;;;21.40;72.10;;;24.49;47.58;101442.59;5036435;28;20583;-56
2023/06/17 06:47:44;;;;;;;12.80;11.50;;;21.40;72.10;;;24.49;47.96;101437.22;5037070;28;20592;-58
2023/06/17 06:50:11;;;;;;;14.27;11.60;;;21.40;71.80;;;24.48;47.78;101443.69;5036876;28;20197;-58
2023/06/17 06:52:38;;;;;;;13.73;11.63;;;21.40;71.70;;;24.45;47.70;101446.84;5036701;28;20280;-56
2023/06/17 06:55:06;;;;;;;13.83;11.60;;;21.40;71.80;;;24.45;48.07;101446.84;5035915;28;20203;-58
2023/06/17 06:57:33;;;;;;;13.13;11.90;;;21.40;72.00;;;24.49;48.10;101445.28;5055310;28;20209;-57
2023/06/17 07:00:00;;;;;;;13.37;12.03;;;21.40;72.10;;;24.54;47.65;101442.66;5057046;28;20221;-59
2023/06/17 07:02:29;;;;;;;12.50;11.30;;;21.40;72.00;;;24.59;47.46;101450.81;5055289;28;20292;-55
2023/06/17 07:04:56;;;;;;;13.83;11.73;;;21.40;72.10;;;24.66;47.58;101449.56;5055998;28;20213;-57
2023/06/17 07:07:23;;;;;;;12.60;11.40;;;21.50;72.00;;;24.75;47.33;101447.25;5055887;28;20248;-58
2023/06/17 07:09:50;;;;;;;14.50;13.20;;;21.60;72.00;;;24.81;47.55;101447.09;5046841;28;20232;-58
2023/06/17 07:12:17;;;;;;;15.33;12.43;;;21.60;71.90;;;24.85;47.31;101452.78;5047045;28;20202;-59
2023/06/17 07:14:44;;;;;;;13.87;12.37;;;21.70;71.90;;;24.88;47.23;101447.72;5055320;28;20729;-58
2023/06/17 07:17:11;;;;;;;15.20;12.63;;;21.70;71.60;;;24.88;46.67;101444.22;5051951;28;20252;-55
2023/06/17 07:19:39;;;;;;;13.50;11.47;;;21.70;71.40;;;24.83;46.99;101450.38;5056107;28;20205;-58
2023/06/17 07:22:07;;;;;;;13.93;12.53;;;21.70;71.30;;;24.84;47.02;101456.56;5056097;28;20249;-55
2023/06/17 07:24:34;;;;;;;13.63;11.60;;;21.70;71.30;;;24.84;46.85;101451.19;5055058;28;20553;-57
2023/06/17 07:27:02;;;;;;;14.67;12.63;;;21.70;71.40;;;24.88;47.34;101468.47;5055873;28;20557;-61
2023/06/17 07:29:30;;;;;;;14.60;12.47;;;21.70;71.30;;;24.88;47.38;101460.38;5055754;28;20190;-54
2023/06/17 07:31:57;;;;;;;16.73;14.00;;;21.70;71.30;;;24.86;47.22;101466.00;5055747;28;20213;-55
2023/06/17 07:34:24;;;;;;;14.60;13.17;;;21.70;71.00;;;24.85;47.01;101466.25;5055954;28;20289;-59
2023/06/17 07:36:53;;;;;;;14.97;13.43;;;21.70;71.10;;;24.86;46.84;101467.91;5048540;28;20198;-59
2023/06/17 07:39:20;;;;;;;14.37;12.13;;;21.70;71.40;;;24.86;46.92;101470.59;5037949;28;20218;-59
2023/06/17 07:41:47;;;;;;;14.00;12.50;;;21.70;71.40;;;24.83;47.05;101476.47;5053871;28;20696;-55
2023/06/17 07:44:14;;;;;;;21.40;13.50;;;21.70;71.20;;;24.79;47.09;101472.66;5056947;28;20202;-54
2023/06/17 07:46:41;;;;;;;18.23;13.83;;;21.70;71.20;;;24.74;46.93;101467.19;5058057;28;20547;-55
2023/06/17 07:49:08;;;;;;;16.27;12.67;;;21.70;71.10;;;24.72;47.38;101464.72;5056081;28;20658;-54
2023/06/17 07:51:37;;;;;;;16.07;14.43;;;21.70;71.40;;;24.77;47.22;101467.50;5059552;28;20212;-56
2023/06/17 07:54:05;;;;;;;13.57;12.17;;;21.70;72.20;;;24.81;47.40;101462.44;5061190;28;20279;-56
2023/06/17 07:56:32;;;;;;;16.33;12.80;;;21.70;71.50;;;24.86;47.55;101463.31;5060779;28;20186;-55
2023/06/17 07:58:59;;;;;;;19.83;15.37;;;21.80;72.30;;;24.94;47.00;101467.44;5060616;28;20205;-55
2023/06/17 08:01:27;;;;;;;16.83;14.73;;;21.80;71.40;;;24.98;46.98;101467.78;5059912;28;20247;-55
2023/06/17 08:03:54;;;;;;;14.70;13.20;;;21.80;71.20;;;25.02;46.59;101463.50;5057456;28;20357;-56
2023/06/17 08:06:22;;;;;;;18.53;15.43;;;21.90;71.30;;;25.09;46.62;101469.50;5060005;28;20210;-59
2023/06/17 08:08:50;;;;;;;15.83;14.20;;;21.90;71.00;;;25.14;46.78;101459.59;5058694;28;20217;-59
2023/06/17 08:11:18;;;;;;;17.47;14.80;;;21.90;71.00;;;25.30;46.32;101460.56;5054925;28;20240;-54
2023/06/17 08:13:46;;;;;;;19.00;15.30;;;22.00;71.20;;;25.43;46.35;101463.69;5054427;28;20217;-58
2023/06/17 08:16:13;;;;;;;17.90;16.00;;;22.10;71.70;;;25.57;46.17;101466.00;5052010;28;20748;-58
2023/06/17 08:18:40;;;;;;;17.77;15.97;;;22.10;70.60;;;25.68;45.37;101462.31;5054947;28;20788;-58
2023/06/17 08:21:07;;;;;;;17.20;15.40;;;22.30;70.30;;;25.75;45.69;101463.72;5052234;28;20198;-58
2023/06/17 08:23:34;;;;;;;18.80;16.07;;;22.30;70.10;;;25.77;45.67;101461.59;5053968;28;20269;-58
2023/06/17 08:26:01;;;;;;;16.13;14.50;;;22.40;69.80;;;25.82;44.94;101463.50;5054129;28;20233;-58
2023/06/17 08:28:29;;;;;;;18.70;15.43;;;22.40;69.60;;;25.83;44.92;101460.56;5054791;28;20527;-59
2023/06/17 08:30:56;;;;;;;15.03;13.60;;;22.50;69.20;;;25.89;44.92;101458.69;5054592;28;20226;-58
2023/06/17 08:33:23;;;;;;;16.80;15.10;;;22.50;69.30;;;26.06;44.56;101467.47;5052711;28;20546;-58
2023/06/17 08:35:50;;;;;;;13.57;12.30;;;22.60;69.10;;;26.21;44.07;101462.22;5052575;28;20217;-59
2023/06/17 08:38:17;;;;;;;14.73;13.23;;;22.70;68.70;;;26.36;44.01;101464.22;5033933;28;20186;-58
2023/06/17 08:40:47;;;;;;;17.47;13.37;;;22.80;68.20;;;26.50;43.95;101463.50;5040620;28;20186;-57
2023/06/17 08:43:19;;;;;;;15.37;13.90;;;22.90;68.10;;;26.66;43.44;101467.88;5052856;28;20267;-59
2023/06/17 08:45:49;;;;;;;15.27;13.43;;;23.00;67.90;;;26.75;43.40;101474.44;5053091;28;20213;-59
2023/06/17 08:48:17;;;;;;;18.60;12.40;;;23.10;67.30;;;26.78;42.81;101468.50;5053019;28;20198;-59
2023/06/17 08:50:48;;;;;;;12.90;11.60;;;23.20;67.00;;;26.82;43.28;101464.19;5053648;28;20190;-58
2023/06/17 08:53:16;;;;;;;14.97;13.60;;;23.30;66.70;;;26.79;42.83;101470.13;5040119;28;20325;-56
2023/06/17 08:55:44;;;;;;;17.47;14.97;;;23.30;66.40;;;26.77;42.94;101471.47;5033139;28;20207;-57
2023/06/17 08:58:11;;;;;;;16.43;14.73;;;23.40;66.40;;;26.80;43.34;101474.47;5033476;28;20292;-58
2023/06/17 09:00:38;;;;;;;16.37;14.90;;;23.40;66.20;;;26.81;43.09;101467.19;5034674;28;20273;-56
2023/06/17 09:03:08;;;;;;;19.90;14.33;;;23.40;66.10;;;26.80;43.27;101466.34;5050651;28;20186;-59
2023/06/17 09:05:36;;;;;;;17.03;14.30;;;23.50;66.10;;;26.77;43.08;101474.16;5053523;28;20214;-58
2023/06/17 09:08:04;;;;;;;15.70;13.93;;;23.50;66.00;;;26.79;42.68;101464.72;5048555;28;20253;-59
2023/06/17 09:10:42;;;;;;;19.53;15.80;;;23.50;66.10;;;27.52;42.54;101462.78;5053376;28;20212;-59
2023/06/17 09:13:09;;;;;;;14.33;12.70;;;23.60;66.20;;;29.00;40.00;101463.09;5052713;28;20618;-58
2023/06/17 09:15:40;;;;;;;16.60;13.53;;;23.90;66.80;;;30.07;37.29;101458.56;5052240;28;20222;-59
2023/06/17 09:18:08;;;;;;;15.47;13.97;;;24.40;65.30;;;30.25;35.75;101457.00;5053534;28;20619;-58
2023/06/17 09:20:35;;;;;;;18.60;14.53;;;24.90;61.40;;;30.13;36.14;101460.13;5053620;28;20198;-58
2023/06/17 09:23:02;;;;;;;15.10;13.47;;;25.30;60.60;;;29.92;36.61;101461.41;5052861;28;20651;-59
2023/06/17 09:25:35;;;;;;;13.27;11.87;;;25.50;60.00;;;29.67;36.80;101456.19;5053518;28;20210;-60
2023/06/17 09:28:02;;;;;;;15.03;13.27;;;25.60;59.50;;;29.79;37.40;101453.91;5053534;28;20185;-57
2023/06/17 09:30:43;;;;;;;14.00;12.60;;;25.60;59.40;;;29.94;36.85;101464.63;5053290;28;20272;-59
2023/06/17 09:33:20;;;;;;;14.90;13.43;;;25.70;59.00;;;29.77;36.94;101466.97;5052393;28;20698;-62
2023/06/17 09:35:57;;;;;;;16.07;14.37;;;25.70;58.40;;;29.53;36.91;101466.84;5053376;28;20271;-58
2023/06/17 09:38:24;;;;;;;15.00;13.50;;;25.70;58.20;;;29.86;36.65;101466.06;5053130;28;20272;-59
2023/06/17 09:40:51;;;;;;;13.33;11.90;;;25.70;58.80;;;31.22;35.46;101466.44;5052806;28;20228;-58
2023/06/17 09:43:24;;;;;;;13.63;12.33;;;25.90;59.30;;;32.91;32.92;101460.19;5052719;28;20558;-59
2023/06/17 09:45:59;;;;;;;15.83;14.37;;;26.50;58.70;;;34.22;30.96;101457.03;5052965;28;20209;-59
2023/06/17 09:48:32;;;;;;;15.43;13.80;;;27.20;56.60;;;35.12;29.92;101456.34;5052379;28;20202;-58
2023/06/17 09:51:00;;;;;;;14.70;13.20;;;27.80;54.50;;;35.59;28.18;101459.28;5052727;28;20200;-59
2023/06/17 09:53:29;;;;;;;15.37;13.77;;;28.40;52.80;;;35.29;28.29;101455.53;5052541;28;20240;-58
2023/06/17 09:55:59;;;;;;;18.50;13.80;;;28.80;51.60;;;34.68;28.86;101460.09;5052354;28;20209;-57
2023/06/17 09:58:29;;;;;;;13.00;11.97;;;29.00;49.80;;;34.62;28.95;101464.13;5031751;28;20186;-58
2023/06/17 10:00:57;;;;;;;15.80;14.10;;;29.00;50.10;;;35.46;28.67;101458.28;5036542;28;20672;-58
2023/06/17 10:03:25;;;;;;;13.60;12.30;;;29.20;50.20;;;36.58;27.45;101450.56;5052243;28;20225;-57
2023/06/17 10:06:01;;;;;;;14.53;13.13;;;29.50;50.10;;;37.87;25.82;101453.88;5049537;28;20214;-58